sensor_id;sensor_type;location;lat;lon;timestamp;P1;durP1;ratioP1;P2;durP2;ratioP2
78752;SDS011;68072;51.688;7.842;2023-07-02T00:02:38;5.25;;;4.10;;
78752;SDS011;68072;51.688;7.842;2023-07-02T00:05:05;6.00;;;3.97;;
78752;SDS011;68072;51.688;7.842;2023-07-02T00:07:32;5.75;;;4.03;;
78752;SDS011;68072;51.688;7.842;2023-07-02T00:10:00;5.60;;;4.05;;
78752;SDS011;68072;51.688;7.842;2023-07-02T00:12:26;4.63;;;3.90;;
78752;SDS011;68072;51.688;7.842;2023-07-02T00:17:19;8.05;;;3.88;;
78752;SDS011;68072;51.688;7.842;2023-07-02T00:19:46;4.78;;;3.67;;
78752;SDS011;68072;51.688;7.842;2023-07-02T00:22:12;5.43;;;4.20;;
78752;SDS011;68072;51.688;7.842;2023-07-02T00:24:41;5.43;;;4.20;;
78752;SDS011;68072;51.688;7.842;2023-07-02T00:27:08;5.53;;;4.43;;
78752;SDS011;68072;51.688;7.842;2023-07-02T00:32:00;7.35;;;4.63;;
78752;SDS011;68072;51.688;7.842;2023-07-02T00:36:52;5.13;;;3.72;;
78752;SDS011;68072;51.688;7.842;2023-07-02T00:41:44;6.85;;;3.80;;
78752;SDS011;68072;51.688;7.842;2023-07-02T00:44:14;4.75;;;3.83;;
78752;SDS011;68072;51.688;7.842;2023-07-02T00:49:06;4.97;;;4.30;;
78752;SDS011;68072;51.688;7.842;2023-07-02T00:51:33;4.05;;;3.72;;
78752;SDS011;68072;51.688;7.842;2023-07-02T00:56:26;5.90;;;3.60;;
78752;SDS011;68072;51.688;7.842;2023-07-02T00:58:53;6.22;;;4.10;;
78752;SDS011;68072;51.688;7.842;2023-07-02T01:01:21;7.57;;;4.18;;
78752;SDS011;68072;51.688;7.842;2023-07-02T01:03:51;4.50;;;3.40;;
78752;SDS011;68072;51.688;7.842;2023-07-02T01:06:24;5.57;;;3.25;;
78752;SDS011;68072;51.688;7.842;2023-07-02T01:08:55;5.40;;;3.80;;
78752;SDS011;68072;51.688;7.842;2023-07-02T01:11:28;10.07;;;3.72;;
78752;SDS011;68072;51.688;7.842;2023-07-02T01:14:00;4.82;;;3.75;;
78752;SDS011;68072;51.688;7.842;2023-07-02T01:16:30;5.68;;;3.45;;
78752;SDS011;68072;51.688;7.842;2023-07-02T01:18:58;4.07;;;3.35;;
78752;SDS011;68072;51.688;7.842;2023-07-02T01:21:30;6.45;;;3.55;;
78752;SDS011;68072;51.688;7.842;2023-07-02T01:24:00;6.78;;;3.83;;
78752;SDS011;68072;51.688;7.842;2023-07-02T01:26:30;3.63;;;3.13;;
78752;SDS011;68072;51.688;7.842;2023-07-02T01:29:00;7.18;;;3.50;;
78752;SDS011;68072;51.688;7.842;2023-07-02T01:31:41;4.75;;;4.25;;
78752;SDS011;68072;51.688;7.842;2023-07-02T01:34:07;5.05;;;3.58;;
78752;SDS011;68072;51.688;7.842;2023-07-02T01:36:34;4.82;;;3.80;;
78752;SDS011;68072;51.688;7.842;2023-07-02T01:41:26;4.75;;;3.25;;
78752;SDS011;68072;51.688;7.842;2023-07-02T01:46:18;5.45;;;3.33;;
78752;SDS011;68072;51.688;7.842;2023-07-02T01:48:44;5.93;;;3.58;;
78752;SDS011;68072;51.688;7.842;2023-07-02T01:53:36;6.38;;;4.05;;
78752;SDS011;68072;51.688;7.842;2023-07-02T01:58:29;6.40;;;3.78;;
78752;SDS011;68072;51.688;7.842;2023-07-02T02:03:21;4.85;;;3.65;;
78752;SDS011;68072;51.688;7.842;2023-07-02T02:05:48;7.90;;;4.35;;
78752;SDS011;68072;51.688;7.842;2023-07-02T02:10:40;10.00;;;4.13;;
78752;SDS011;68072;51.688;7.842;2023-07-02T02:15:32;7.05;;;3.85;;
78752;SDS011;68072;51.688;7.842;2023-07-02T02:20:24;8.80;;;3.20;;
78752;SDS011;68072;51.688;7.842;2023-07-02T02:25:17;4.93;;;3.50;;
78752;SDS011;68072;51.688;7.842;2023-07-02T02:30:09;5.28;;;3.63;;
78752;SDS011;68072;51.688;7.842;2023-07-02T02:32:35;6.65;;;3.85;;
78752;SDS011;68072;51.688;7.842;2023-07-02T02:35:03;6.65;;;3.58;;
78752;SDS011;68072;51.688;7.842;2023-07-02T02:37:29;7.70;;;3.80;;
78752;SDS011;68072;51.688;7.842;2023-07-02T02:39:57;7.70;;;3.53;;
78752;SDS011;68072;51.688;7.842;2023-07-02T02:44:50;5.10;;;3.22;;
78752;SDS011;68072;51.688;7.842;2023-07-02T02:49:42;6.28;;;4.15;;
78752;SDS011;68072;51.688;7.842;2023-07-02T02:54:35;11.85;;;3.97;;
78752;SDS011;68072;51.688;7.842;2023-07-02T02:59:27;5.13;;;3.72;;
78752;SDS011;68072;51.688;7.842;2023-07-02T03:01:53;8.80;;;3.72;;
78752;SDS011;68072;51.688;7.842;2023-07-02T03:06:51;6.97;;;3.58;;
78752;SDS011;68072;51.688;7.842;2023-07-02T03:09:19;7.43;;;4.22;;
78752;SDS011;68072;51.688;7.842;2023-07-02T03:11:46;10.30;;;4.15;;
78752;SDS011;68072;51.688;7.842;2023-07-02T03:14:12;10.90;;;4.72;;
78752;SDS011;68072;51.688;7.842;2023-07-02T03:16:38;13.30;;;5.28;;
78752;SDS011;68072;51.688;7.842;2023-07-02T03:21:30;6.45;;;3.65;;
78752;SDS011;68072;51.688;7.842;2023-07-02T03:23:58;8.20;;;3.92;;
78752;SDS011;68072;51.688;7.842;2023-07-02T03:28:50;7.45;;;4.93;;
78752;SDS011;68072;51.688;7.842;2023-07-02T03:33:42;11.98;;;4.57;;
78752;SDS011;68072;51.688;7.842;2023-07-02T03:38:34;10.43;;;4.32;;
78752;SDS011;68072;51.688;7.842;2023-07-02T03:43:27;10.13;;;4.35;;
78752;SDS011;68072;51.688;7.842;2023-07-02T03:48:19;12.43;;;4.88;;
78752;SDS011;68072;51.688;7.842;2023-07-02T03:53:11;10.43;;;4.90;;
78752;SDS011;68072;51.688;7.842;2023-07-02T03:58:04;12.73;;;5.47;;
78752;SDS011;68072;51.688;7.842;2023-07-02T04:02:57;12.00;;;5.30;;
78752;SDS011;68072;51.688;7.842;2023-07-02T04:05:24;13.23;;;6.15;;
78752;SDS011;68072;51.688;7.842;2023-07-02T04:10:16;10.82;;;5.65;;
78752;SDS011;68072;51.688;7.842;2023-07-02T04:15:08;12.25;;;6.20;;
78752;SDS011;68072;51.688;7.842;2023-07-02T04:17:35;15.00;;;6.20;;
78752;SDS011;68072;51.688;7.842;2023-07-02T04:22:29;11.27;;;5.90;;
78752;SDS011;68072;51.688;7.842;2023-07-02T04:24:55;11.07;;;5.40;;
78752;SDS011;68072;51.688;7.842;2023-07-02T04:27:22;11.35;;;5.90;;
78752;SDS011;68072;51.688;7.842;2023-07-02T04:32:14;16.50;;;6.47;;
78752;SDS011;68072;51.688;7.842;2023-07-02T04:37:08;12.82;;;5.65;;
78752;SDS011;68072;51.688;7.842;2023-07-02T04:39:35;14.80;;;6.38;;
78752;SDS011;68072;51.688;7.842;2023-07-02T04:44:27;14.80;;;6.40;;
78752;SDS011;68072;51.688;7.842;2023-07-02T04:47:00;11.88;;;5.85;;
78752;SDS011;68072;51.688;7.842;2023-07-02T04:49:27;15.77;;;6.55;;
78752;SDS011;68072;51.688;7.842;2023-07-02T04:51:53;19.48;;;5.85;;
78752;SDS011;68072;51.688;7.842;2023-07-02T04:56:46;11.88;;;5.68;;
78752;SDS011;68072;51.688;7.842;2023-07-02T04:59:14;16.48;;;5.72;;
78752;SDS011;68072;51.688;7.842;2023-07-02T05:01:40;12.88;;;5.78;;
78752;SDS011;68072;51.688;7.842;2023-07-02T05:04:08;16.48;;;5.63;;
78752;SDS011;68072;51.688;7.842;2023-07-02T05:06:35;12.90;;;5.20;;
78752;SDS011;68072;51.688;7.842;2023-07-02T05:11:27;14.27;;;5.60;;
78752;SDS011;68072;51.688;7.842;2023-07-02T05:16:20;13.13;;;5.03;;
78752;SDS011;68072;51.688;7.842;2023-07-02T05:21:12;13.23;;;5.25;;
78752;SDS011;68072;51.688;7.842;2023-07-02T05:26:04;13.25;;;4.97;;
78752;SDS011;68072;51.688;7.842;2023-07-02T05:30:56;10.20;;;4.72;;
78752;SDS011;68072;51.688;7.842;2023-07-02T05:35:48;15.20;;;4.93;;
78752;SDS011;68072;51.688;7.842;2023-07-02T05:40:41;9.73;;;5.10;;
78752;SDS011;68072;51.688;7.842;2023-07-02T05:45:33;13.02;;;4.63;;
78752;SDS011;68072;51.688;7.842;2023-07-02T05:50:25;10.10;;;4.40;;
78752;SDS011;68072;51.688;7.842;2023-07-02T05:55:18;10.77;;;4.60;;
78752;SDS011;68072;51.688;7.842;2023-07-02T06:00:11;12.65;;;4.90;;
78752;SDS011;68072;51.688;7.842;2023-07-02T06:02:38;16.70;;;5.47;;
78752;SDS011;68072;51.688;7.842;2023-07-02T06:05:04;15.77;;;5.53;;
78752;SDS011;68072;51.688;7.842;2023-07-02T06:07:31;15.15;;;5.35;;
78752;SDS011;68072;51.688;7.842;2023-07-02T06:12:23;19.13;;;5.25;;
78752;SDS011;68072;51.688;7.842;2023-07-02T06:17:15;12.93;;;4.45;;
78752;SDS011;68072;51.688;7.842;2023-07-02T06:19:42;18.25;;;5.07;;
78752;SDS011;68072;51.688;7.842;2023-07-02T06:22:08;14.82;;;5.20;;
78752;SDS011;68072;51.688;7.842;2023-07-02T06:24:34;12.10;;;4.97;;
78752;SDS011;68072;51.688;7.842;2023-07-02T06:27:00;12.65;;;4.80;;
78752;SDS011;68072;51.688;7.842;2023-07-02T06:29:27;14.88;;;5.03;;
78752;SDS011;68072;51.688;7.842;2023-07-02T06:31:54;18.15;;;5.53;;
78752;SDS011;68072;51.688;7.842;2023-07-02T06:34:21;14.07;;;6.03;;
78752;SDS011;68072;51.688;7.842;2023-07-02T06:36:47;11.18;;;5.45;;
78752;SDS011;68072;51.688;7.842;2023-07-02T06:39:13;14.35;;;5.63;;
78752;SDS011;68072;51.688;7.842;2023-07-02T06:41:40;15.82;;;6.50;;
78752;SDS011;68072;51.688;7.842;2023-07-02T06:44:06;14.77;;;6.68;;
78752;SDS011;68072;51.688;7.842;2023-07-02T06:46:32;17.50;;;7.57;;
78752;SDS011;68072;51.688;7.842;2023-07-02T06:48:58;17.38;;;7.78;;
78752;SDS011;68072;51.688;7.842;2023-07-02T06:51:25;24.08;;;8.68;;
78752;SDS011;68072;51.688;7.842;2023-07-02T06:53:52;22.70;;;9.63;;
78752;SDS011;68072;51.688;7.842;2023-07-02T06:56:19;21.35;;;9.30;;
78752;SDS011;68072;51.688;7.842;2023-07-02T06:58:45;22.75;;;10.40;;
78752;SDS011;68072;51.688;7.842;2023-07-02T07:01:11;16.98;;;8.70;;
78752;SDS011;68072;51.688;7.842;2023-07-02T07:03:37;18.80;;;9.10;;
78752;SDS011;68072;51.688;7.842;2023-07-02T07:06:04;18.75;;;9.15;;
78752;SDS011;68072;51.688;7.842;2023-07-02T07:08:30;23.70;;;9.95;;
78752;SDS011;68072;51.688;7.842;2023-07-02T07:10:56;16.10;;;7.63;;
78752;SDS011;68072;51.688;7.842;2023-07-02T07:13:22;16.33;;;7.28;;
78752;SDS011;68072;51.688;7.842;2023-07-02T07:15:49;18.17;;;7.43;;
78752;SDS011;68072;51.688;7.842;2023-07-02T07:18:15;15.05;;;7.03;;
78752;SDS011;68072;51.688;7.842;2023-07-02T07:20:41;19.63;;;6.68;;
78752;SDS011;68072;51.688;7.842;2023-07-02T07:23:08;19.48;;;6.95;;
78752;SDS011;68072;51.688;7.842;2023-07-02T07:25:34;11.85;;;6.07;;
78752;SDS011;68072;51.688;7.842;2023-07-02T07:28:01;10.57;;;5.55;;
78752;SDS011;68072;51.688;7.842;2023-07-02T07:30:27;20.25;;;7.47;;
78752;SDS011;68072;51.688;7.842;2023-07-02T07:32:53;20.85;;;6.53;;
78752;SDS011;68072;51.688;7.842;2023-07-02T07:35:20;15.52;;;5.38;;
78752;SDS011;68072;51.688;7.842;2023-07-02T07:37:47;15.68;;;6.25;;
78752;SDS011;68072;51.688;7.842;2023-07-02T07:40:14;17.00;;;5.88;;
78752;SDS011;68072;51.688;7.842;2023-07-02T07:42:41;11.35;;;4.82;;
78752;SDS011;68072;51.688;7.842;2023-07-02T07:45:09;13.52;;;5.53;;
78752;SDS011;68072;51.688;7.842;2023-07-02T07:47:36;15.95;;;5.40;;
78752;SDS011;68072;51.688;7.842;2023-07-02T07:50:02;16.13;;;6.40;;
78752;SDS011;68072;51.688;7.842;2023-07-02T07:52:28;14.38;;;6.47;;
78752;SDS011;68072;51.688;7.842;2023-07-02T07:54:55;15.77;;;5.57;;
78752;SDS011;68072;51.688;7.842;2023-07-02T07:57:21;12.23;;;5.15;;
78752;SDS011;68072;51.688;7.842;2023-07-02T07:59:47;14.18;;;5.97;;
78752;SDS011;68072;51.688;7.842;2023-07-02T08:02:13;13.20;;;5.75;;
78752;SDS011;68072;51.688;7.842;2023-07-02T08:04:40;12.13;;;4.93;;
78752;SDS011;68072;51.688;7.842;2023-07-02T08:07:06;15.25;;;5.38;;
78752;SDS011;68072;51.688;7.842;2023-07-02T08:09:34;16.55;;;6.00;;
78752;SDS011;68072;51.688;7.842;2023-07-02T08:12:01;15.30;;;5.55;;
78752;SDS011;68072;51.688;7.842;2023-07-02T08:14:28;18.10;;;6.25;;
78752;SDS011;68072;51.688;7.842;2023-07-02T08:16:55;13.30;;;5.32;;
78752;SDS011;68072;51.688;7.842;2023-07-02T08:19:21;12.88;;;5.75;;
78752;SDS011;68072;51.688;7.842;2023-07-02T08:21:47;14.07;;;5.70;;
78752;SDS011;68072;51.688;7.842;2023-07-02T08:24:14;16.60;;;5.88;;
78752;SDS011;68072;51.688;7.842;2023-07-02T08:26:40;12.88;;;5.45;;
78752;SDS011;68072;51.688;7.842;2023-07-02T08:29:06;18.58;;;5.80;;
78752;SDS011;68072;51.688;7.842;2023-07-02T08:31:32;18.63;;;5.57;;
78752;SDS011;68072;51.688;7.842;2023-07-02T08:33:59;15.60;;;6.25;;
78752;SDS011;68072;51.688;7.842;2023-07-02T08:36:25;15.88;;;6.13;;
78752;SDS011;68072;51.688;7.842;2023-07-02T08:38:51;16.17;;;5.80;;
78752;SDS011;68072;51.688;7.842;2023-07-02T08:41:19;14.20;;;5.65;;
78752;SDS011;68072;51.688;7.842;2023-07-02T08:43:46;10.40;;;5.38;;
78752;SDS011;68072;51.688;7.842;2023-07-02T08:46:15;12.25;;;5.22;;
78752;SDS011;68072;51.688;7.842;2023-07-02T08:48:41;15.48;;;5.60;;
78752;SDS011;68072;51.688;7.842;2023-07-02T08:51:08;11.68;;;6.05;;
78752;SDS011;68072;51.688;7.842;2023-07-02T08:53:34;14.98;;;5.32;;
78752;SDS011;68072;51.688;7.842;2023-07-02T08:56:01;11.35;;;5.60;;
78752;SDS011;68072;51.688;7.842;2023-07-02T08:58:29;10.30;;;5.47;;
78752;SDS011;68072;51.688;7.842;2023-07-02T09:03:35;14.43;;;5.63;;
78752;SDS011;68072;51.688;7.842;2023-07-02T09:06:03;13.20;;;5.60;;
78752;SDS011;68072;51.688;7.842;2023-07-02T09:08:30;17.30;;;5.90;;
78752;SDS011;68072;51.688;7.842;2023-07-02T09:13:31;12.48;;;5.78;;
78752;SDS011;68072;51.688;7.842;2023-07-02T09:15:57;11.30;;;5.38;;
78752;SDS011;68072;51.688;7.842;2023-07-02T09:18:24;14.23;;;5.90;;
78752;SDS011;68072;51.688;7.842;2023-07-02T09:20:51;15.10;;;5.88;;
78752;SDS011;68072;51.688;7.842;2023-07-02T09:23:18;17.85;;;5.65;;
78752;SDS011;68072;51.688;7.842;2023-07-02T09:25:45;12.43;;;5.22;;
78752;SDS011;68072;51.688;7.842;2023-07-02T09:28:18;15.90;;;6.25;;
78752;SDS011;68072;51.688;7.842;2023-07-02T09:30:53;12.27;;;5.28;;
78752;SDS011;68072;51.688;7.842;2023-07-02T09:33:21;13.80;;;5.18;;
78752;SDS011;68072;51.688;7.842;2023-07-02T09:35:48;15.77;;;5.03;;
78752;SDS011;68072;51.688;7.842;2023-07-02T09:38:17;10.77;;;5.10;;
78752;SDS011;68072;51.688;7.842;2023-07-02T09:40:46;20.67;;;5.43;;
78752;SDS011;68072;51.688;7.842;2023-07-02T09:43:16;12.68;;;5.18;;
78752;SDS011;68072;51.688;7.842;2023-07-02T09:45:44;11.98;;;5.32;;
78752;SDS011;68072;51.688;7.842;2023-07-02T09:48:12;16.38;;;6.10;;
78752;SDS011;68072;51.688;7.842;2023-07-02T09:50:40;15.02;;;4.80;;
78752;SDS011;68072;51.688;7.842;2023-07-02T09:53:10;10.40;;;5.05;;
78752;SDS011;68072;51.688;7.842;2023-07-02T09:55:42;13.00;;;5.38;;
78752;SDS011;68072;51.688;7.842;2023-07-02T09:58:09;12.68;;;4.72;;
78752;SDS011;68072;51.688;7.842;2023-07-02T10:00:36;11.50;;;4.78;;
78752;SDS011;68072;51.688;7.842;2023-07-02T10:03:02;13.75;;;4.93;;
78752;SDS011;68072;51.688;7.842;2023-07-02T10:05:29;11.98;;;5.35;;
78752;SDS011;68072;51.688;7.842;2023-07-02T10:07:56;10.98;;;4.78;;
78752;SDS011;68072;51.688;7.842;2023-07-02T10:10:30;10.90;;;4.97;;
78752;SDS011;68072;51.688;7.842;2023-07-02T10:12:57;10.38;;;5.15;;
78752;SDS011;68072;51.688;7.842;2023-07-02T10:15:24;8.68;;;4.25;;
78752;SDS011;68072;51.688;7.842;2023-07-02T10:17:57;15.20;;;5.28;;
78752;SDS011;68072;51.688;7.842;2023-07-02T10:23:01;9.50;;;4.40;;
78752;SDS011;68072;51.688;7.842;2023-07-02T10:25:31;12.65;;;5.15;;
78752;SDS011;68072;51.688;7.842;2023-07-02T10:27:58;11.85;;;5.38;;
78752;SDS011;68072;51.688;7.842;2023-07-02T10:30:32;10.18;;;4.20;;
78752;SDS011;68072;51.688;7.842;2023-07-02T10:33:14;11.15;;;4.57;;
78752;SDS011;68072;51.688;7.842;2023-07-02T10:35:42;9.13;;;4.38;;
78752;SDS011;68072;51.688;7.842;2023-07-02T10:38:14;9.60;;;4.63;;
78752;SDS011;68072;51.688;7.842;2023-07-02T10:40:46;9.75;;;4.13;;
78752;SDS011;68072;51.688;7.842;2023-07-02T10:43:12;11.23;;;5.15;;
78752;SDS011;68072;51.688;7.842;2023-07-02T10:45:39;11.30;;;5.13;;
78752;SDS011;68072;51.688;7.842;2023-07-02T10:48:09;14.95;;;4.93;;
78752;SDS011;68072;51.688;7.842;2023-07-02T10:50:35;10.05;;;4.63;;
78752;SDS011;68072;51.688;7.842;2023-07-02T10:53:02;12.18;;;5.18;;
78752;SDS011;68072;51.688;7.842;2023-07-02T10:55:28;10.68;;;5.03;;
78752;SDS011;68072;51.688;7.842;2023-07-02T10:58:05;9.27;;;4.53;;
78752;SDS011;68072;51.688;7.842;2023-07-02T11:00:32;9.18;;;4.68;;
78752;SDS011;68072;51.688;7.842;2023-07-02T11:02:59;12.50;;;4.53;;
78752;SDS011;68072;51.688;7.842;2023-07-02T11:05:25;11.75;;;4.65;;
78752;SDS011;68072;51.688;7.842;2023-07-02T11:07:52;10.07;;;4.93;;
78752;SDS011;68072;51.688;7.842;2023-07-02T11:10:22;11.32;;;4.78;;
78752;SDS011;68072;51.688;7.842;2023-07-02T11:12:49;8.82;;;4.30;;
78752;SDS011;68072;51.688;7.842;2023-07-02T11:15:16;12.95;;;4.80;;
78752;SDS011;68072;51.688;7.842;2023-07-02T11:17:46;11.93;;;4.53;;
78752;SDS011;68072;51.688;7.842;2023-07-02T11:20:13;8.93;;;4.75;;
78752;SDS011;68072;51.688;7.842;2023-07-02T11:22:40;9.18;;;4.30;;
78752;SDS011;68072;51.688;7.842;2023-07-02T11:25:16;10.73;;;4.43;;
78752;SDS011;68072;51.688;7.842;2023-07-02T11:27:44;11.35;;;4.30;;
78752;SDS011;68072;51.688;7.842;2023-07-02T11:30:10;11.60;;;4.50;;
78752;SDS011;68072;51.688;7.842;2023-07-02T11:32:51;8.32;;;4.90;;
78752;SDS011;68072;51.688;7.842;2023-07-02T11:35:20;11.32;;;4.90;;
78752;SDS011;68072;51.688;7.842;2023-07-02T11:37:48;13.20;;;4.70;;
78752;SDS011;68072;51.688;7.842;2023-07-02T11:40:17;11.80;;;5.00;;
78752;SDS011;68072;51.688;7.842;2023-07-02T11:42:43;8.88;;;4.18;;
78752;SDS011;68072;51.688;7.842;2023-07-02T11:45:09;10.15;;;4.30;;
78752;SDS011;68072;51.688;7.842;2023-07-02T11:47:37;11.23;;;4.38;;
78752;SDS011;68072;51.688;7.842;2023-07-02T11:50:04;12.68;;;4.60;;
78752;SDS011;68072;51.688;7.842;2023-07-02T11:52:31;10.57;;;4.28;;
78752;SDS011;68072;51.688;7.842;2023-07-02T11:54:57;13.38;;;4.57;;
78752;SDS011;68072;51.688;7.842;2023-07-02T11:57:23;9.02;;;4.22;;
78752;SDS011;68072;51.688;7.842;2023-07-02T11:59:50;9.95;;;4.63;;
78752;SDS011;68072;51.688;7.842;2023-07-02T12:02:18;16.13;;;4.25;;
78752;SDS011;68072;51.688;7.842;2023-07-02T12:04:45;11.38;;;3.90;;
78752;SDS011;68072;51.688;7.842;2023-07-02T12:07:11;9.85;;;4.18;;
78752;SDS011;68072;51.688;7.842;2023-07-02T12:09:39;9.45;;;4.45;;
78752;SDS011;68072;51.688;7.842;2023-07-02T12:12:05;13.15;;;4.43;;
78752;SDS011;68072;51.688;7.842;2023-07-02T12:14:32;10.68;;;4.18;;
78752;SDS011;68072;51.688;7.842;2023-07-02T12:16:59;9.52;;;4.00;;
78752;SDS011;68072;51.688;7.842;2023-07-02T12:19:25;10.32;;;4.65;;
78752;SDS011;68072;51.688;7.842;2023-07-02T12:21:51;11.55;;;4.10;;
78752;SDS011;68072;51.688;7.842;2023-07-02T12:24:17;17.58;;;4.80;;
78752;SDS011;68072;51.688;7.842;2023-07-02T12:26:44;9.02;;;4.22;;
78752;SDS011;68072;51.688;7.842;2023-07-02T12:29:10;12.02;;;4.50;;
78752;SDS011;68072;51.688;7.842;2023-07-02T12:31:36;9.57;;;4.13;;
78752;SDS011;68072;51.688;7.842;2023-07-02T12:34:02;10.15;;;4.55;;
78752;SDS011;68072;51.688;7.842;2023-07-02T12:36:29;7.55;;;4.03;;
78752;SDS011;68072;51.688;7.842;2023-07-02T12:38:55;9.40;;;4.43;;
78752;SDS011;68072;51.688;7.842;2023-07-02T12:41:22;11.73;;;3.85;;
78752;SDS011;68072;51.688;7.842;2023-07-02T12:43:48;11.73;;;4.40;;
78752;SDS011;68072;51.688;7.842;2023-07-02T12:46:14;8.65;;;3.83;;
78752;SDS011;68072;51.688;7.842;2023-07-02T12:48:40;11.20;;;4.60;;
78752;SDS011;68072;51.688;7.842;2023-07-02T12:51:07;10.95;;;4.15;;
78752;SDS011;68072;51.688;7.842;2023-07-02T12:53:34;8.73;;;3.80;;
78752;SDS011;68072;51.688;7.842;2023-07-02T12:56:00;8.70;;;3.08;;
78752;SDS011;68072;51.688;7.842;2023-07-02T12:58:26;9.07;;;3.75;;
78752;SDS011;68072;51.688;7.842;2023-07-02T13:00:52;7.32;;;3.50;;
78752;SDS011;68072;51.688;7.842;2023-07-02T13:03:20;9.32;;;4.20;;
78752;SDS011;68072;51.688;7.842;2023-07-02T13:05:48;9.98;;;4.03;;
78752;SDS011;68072;51.688;7.842;2023-07-02T13:08:15;6.80;;;3.63;;
78752;SDS011;68072;51.688;7.842;2023-07-02T13:10:41;12.18;;;4.05;;
78752;SDS011;68072;51.688;7.842;2023-07-02T13:13:07;6.82;;;3.70;;
78752;SDS011;68072;51.688;7.842;2023-07-02T13:15:34;6.57;;;3.55;;
78752;SDS011;68072;51.688;7.842;2023-07-02T13:18:01;12.45;;;4.25;;
78752;SDS011;68072;51.688;7.842;2023-07-02T13:20:27;9.90;;;4.10;;
78752;SDS011;68072;51.688;7.842;2023-07-02T13:22:53;7.88;;;3.72;;
78752;SDS011;68072;51.688;7.842;2023-07-02T13:25:20;10.77;;;4.30;;
78752;SDS011;68072;51.688;7.842;2023-07-02T13:27:46;11.73;;;3.65;;
78752;SDS011;68072;51.688;7.842;2023-07-02T13:30:12;8.85;;;3.30;;
78752;SDS011;68072;51.688;7.842;2023-07-02T13:32:38;7.53;;;3.58;;
78752;SDS011;68072;51.688;7.842;2023-07-02T13:35:05;8.93;;;4.07;;
78752;SDS011;68072;51.688;7.842;2023-07-02T13:37:31;10.13;;;3.72;;
78752;SDS011;68072;51.688;7.842;2023-07-02T13:39:57;6.90;;;3.50;;
78752;SDS011;68072;51.688;7.842;2023-07-02T13:42:24;11.10;;;3.78;;
78752;SDS011;68072;51.688;7.842;2023-07-02T13:44:50;7.97;;;3.53;;
78752;SDS011;68072;51.688;7.842;2023-07-02T13:47:16;8.10;;;4.03;;
78752;SDS011;68072;51.688;7.842;2023-07-02T13:49:42;9.23;;;3.90;;
78752;SDS011;68072;51.688;7.842;2023-07-02T13:52:09;10.60;;;4.15;;
78752;SDS011;68072;51.688;7.842;2023-07-02T13:54:35;6.90;;;4.00;;
78752;SDS011;68072;51.688;7.842;2023-07-02T13:57:03;8.38;;;3.42;;
78752;SDS011;68072;51.688;7.842;2023-07-02T13:59:29;8.75;;;3.97;;
78752;SDS011;68072;51.688;7.842;2023-07-02T14:01:55;7.75;;;3.78;;
78752;SDS011;68072;51.688;7.842;2023-07-02T14:04:21;10.75;;;4.45;;
78752;SDS011;68072;51.688;7.842;2023-07-02T14:06:48;7.18;;;3.60;;
78752;SDS011;68072;51.688;7.842;2023-07-02T14:09:14;9.73;;;3.85;;
78752;SDS011;68072;51.688;7.842;2023-07-02T14:11:41;11.43;;;4.45;;
78752;SDS011;68072;51.688;7.842;2023-07-02T14:14:08;8.57;;;3.83;;
78752;SDS011;68072;51.688;7.842;2023-07-02T14:19:00;10.45;;;3.92;;
78752;SDS011;68072;51.688;7.842;2023-07-02T14:21:26;12.90;;;4.43;;
78752;SDS011;68072;51.688;7.842;2023-07-02T14:23:53;8.65;;;3.83;;
78752;SDS011;68072;51.688;7.842;2023-07-02T14:26:19;8.18;;;4.03;;
78752;SDS011;68072;51.688;7.842;2023-07-02T14:28:45;7.68;;;3.25;;
78752;SDS011;68072;51.688;7.842;2023-07-02T14:31:11;8.68;;;4.93;;
78752;SDS011;68072;51.688;7.842;2023-07-02T14:33:38;8.75;;;3.90;;
78752;SDS011;68072;51.688;7.842;2023-07-02T14:36:04;10.90;;;3.97;;
78752;SDS011;68072;51.688;7.842;2023-07-02T14:38:31;8.77;;;4.03;;
78752;SDS011;68072;51.688;7.842;2023-07-02T14:41:00;10.82;;;4.00;;
78752;SDS011;68072;51.688;7.842;2023-07-02T14:43:27;7.97;;;4.10;;
78752;SDS011;68072;51.688;7.842;2023-07-02T14:45:54;10.57;;;4.10;;
78752;SDS011;68072;51.688;7.842;2023-07-02T14:48:23;11.10;;;4.18;;
78752;SDS011;68072;51.688;7.842;2023-07-02T14:53:17;10.57;;;4.47;;
78752;SDS011;68072;51.688;7.842;2023-07-02T14:55:44;11.15;;;4.45;;
78752;SDS011;68072;51.688;7.842;2023-07-02T14:58:10;10.65;;;4.28;;
78752;SDS011;68072;51.688;7.842;2023-07-02T15:00:47;11.07;;;4.93;;
78752;SDS011;68072;51.688;7.842;2023-07-02T15:03:16;8.70;;;4.28;;
78752;SDS011;68072;51.688;7.842;2023-07-02T15:05:45;16.48;;;4.80;;
78752;SDS011;68072;51.688;7.842;2023-07-02T15:08:12;10.55;;;4.93;;
78752;SDS011;68072;51.688;7.842;2023-07-02T15:10:39;11.32;;;4.85;;
78752;SDS011;68072;51.688;7.842;2023-07-02T15:13:06;12.00;;;4.45;;
78752;SDS011;68072;51.688;7.842;2023-07-02T15:15:33;10.30;;;4.45;;
78752;SDS011;68072;51.688;7.842;2023-07-02T15:17:59;9.82;;;4.55;;
78752;SDS011;68072;51.688;7.842;2023-07-02T15:20:26;13.70;;;4.95;;
78752;SDS011;68072;51.688;7.842;2023-07-02T15:22:52;14.40;;;5.38;;
78752;SDS011;68072;51.688;7.842;2023-07-02T15:25:18;8.55;;;4.85;;
78752;SDS011;68072;51.688;7.842;2023-07-02T15:27:44;11.90;;;4.43;;
78752;SDS011;68072;51.688;7.842;2023-07-02T15:30:11;12.68;;;5.10;;
78752;SDS011;68072;51.688;7.842;2023-07-02T15:32:37;12.27;;;4.07;;
78752;SDS011;68072;51.688;7.842;2023-07-02T15:35:04;10.25;;;5.00;;
78752;SDS011;68072;51.688;7.842;2023-07-02T15:37:30;10.75;;;4.70;;
78752;SDS011;68072;51.688;7.842;2023-07-02T15:39:56;12.35;;;5.70;;
78752;SDS011;68072;51.688;7.842;2023-07-02T15:42:23;14.50;;;5.28;;
78752;SDS011;68072;51.688;7.842;2023-07-02T15:44:53;10.02;;;4.32;;
78752;SDS011;68072;51.688;7.842;2023-07-02T15:47:19;12.25;;;4.95;;
78752;SDS011;68072;51.688;7.842;2023-07-02T15:49:46;11.63;;;5.78;;
78752;SDS011;68072;51.688;7.842;2023-07-02T15:52:12;15.68;;;5.45;;
78752;SDS011;68072;51.688;7.842;2023-07-02T15:54:38;9.40;;;4.78;;
78752;SDS011;68072;51.688;7.842;2023-07-02T15:57:04;8.77;;;4.78;;
78752;SDS011;68072;51.688;7.842;2023-07-02T15:59:31;14.27;;;5.30;;
78752;SDS011;68072;51.688;7.842;2023-07-02T16:01:57;15.20;;;5.50;;
78752;SDS011;68072;51.688;7.842;2023-07-02T16:04:24;10.40;;;4.95;;
78752;SDS011;68072;51.688;7.842;2023-07-02T16:06:51;10.73;;;5.10;;
78752;SDS011;68072;51.688;7.842;2023-07-02T16:09:18;13.05;;;5.25;;
78752;SDS011;68072;51.688;7.842;2023-07-02T16:11:44;12.65;;;5.25;;
78752;SDS011;68072;51.688;7.842;2023-07-02T16:14:11;10.40;;;5.30;;
78752;SDS011;68072;51.688;7.842;2023-07-02T16:16:40;9.98;;;4.70;;
78752;SDS011;68072;51.688;7.842;2023-07-02T16:19:08;12.65;;;5.80;;
78752;SDS011;68072;51.688;7.842;2023-07-02T16:21:36;10.00;;;5.10;;
78752;SDS011;68072;51.688;7.842;2023-07-02T16:24:24;14.73;;;5.05;;
78752;SDS011;68072;51.688;7.842;2023-07-02T16:26:52;11.88;;;5.10;;
78752;SDS011;68072;51.688;7.842;2023-07-02T16:29:20;13.38;;;5.63;;
78752;SDS011;68072;51.688;7.842;2023-07-02T16:31:47;14.05;;;5.15;;
78752;SDS011;68072;51.688;7.842;2023-07-02T16:34:14;13.00;;;5.05;;
78752;SDS011;68072;51.688;7.842;2023-07-02T16:36:43;13.45;;;4.88;;
78752;SDS011;68072;51.688;7.842;2023-07-02T16:39:14;11.68;;;5.05;;
78752;SDS011;68072;51.688;7.842;2023-07-02T16:41:41;14.95;;;5.28;;
78752;SDS011;68072;51.688;7.842;2023-07-02T16:44:17;10.77;;;4.63;;
78752;SDS011;68072;51.688;7.842;2023-07-02T16:46:45;11.07;;;5.10;;
78752;SDS011;68072;51.688;7.842;2023-07-02T16:49:12;9.68;;;4.45;;
78752;SDS011;68072;51.688;7.842;2023-07-02T16:51:39;11.00;;;4.68;;
78752;SDS011;68072;51.688;7.842;2023-07-02T16:54:08;11.68;;;4.85;;